Time;durP1;ratioP1;P1;durP2;ratioP2;P2;SDS_P1;SDS_P2;PMS_P1;PMS_P2;Temp;Humidity;BMP_temperature;BMP_pressure;BME280_temperature;BME280_humidity;BME280_pressure;Samples;Min_cycle;Max_cycle;Signal;HPM_P1;HPM_P2
2022/09/26 00:30:28;;;;;;;39.90;27.87;;;;;;;-141.34;100.00;64401.34;5269597;32;296849;-74
2022/09/26 01:18:09;;;;;;;38.67;27.62;;;;;;;-141.34;100.00;64401.34;5572919;32;32432;-75
2022/09/26 02:48:01;;;;;;;36.65;23.85;;;;;;;12.32;100.00;99837.62;5246621;32;325241;-75
2022/09/26 03:11:01;;;;;;;55.90;25.88;;;;;;;12.32;100.00;99837.62;5245788;32;325027;-70
2022/09/26 05:08:46;;;;;;;35.88;24.90;;;;;;;12.32;100.00;99837.62;5232391;32;326031;-70
2022/09/26 05:27:24;;;;;;;36.20;27.33;;;;;;;-141.34;100.00;64401.34;5228608;32;357162;-72
2022/09/26 05:40:57;;;;;;;41.40;29.92;;;;;;;12.32;100.00;99837.62;5246310;32;324792;-71
2022/09/26 05:44:29;;;;;;;43.08;30.65;;;;;;;12.32;100.00;99837.62;5245872;32;325056;-71
2022/09/26 05:48:19;;;;;;;33.85;28.05;;;;;;;12.32;100.00;99837.62;5245798;32;326888;-72
2022/09/26 06:15:29;;;;;;;44.30;30.35;;;;;;;12.32;100.00;99837.62;5254606;32;325479;-71
2022/09/26 06:24:55;;;;;;;49.10;35.15;;;;;;;-141.34;100.00;64401.34;5245346;32;324909;-72
2022/09/26 10:14:14;;;;;;;51.08;36.03;;;;;;;12.32;100.00;99837.62;5245374;32;325515;-73
2022/09/26 12:01:42;;;;;;;7.15;5.50;;;;;;;12.32;100.00;99837.62;5251085;31;323994;-72
2022/09/26 12:12:50;;;;;;;6.30;2.90;;;;;;;12.32;100.00;99837.62;5249714;31;323686;-69
2022/09/26 12:18:52;;;;;;;4.57;2.42;;;;;;;12.32;100.00;99837.62;5301713;31;325420;-70
2022/09/26 12:25:36;;;;;;;3.92;1.87;;;;;;;12.32;100.00;99837.62;5339325;31;328972;-70
2022/09/26 12:30:17;;;;;;;2.78;1.58;;;;;;;12.32;100.00;99837.62;5382586;31;297083;-70
2022/09/26 12:33:36;;;;;;;2.30;1.65;;;;;;;12.32;100.00;99837.62;5312094;31;297099;-69
2022/09/26 12:38:47;;;;;;;3.83;1.85;;;;;;;22.95;56.75;99495.78;5251992;31;324786;-69
2022/09/26 12:41:57;;;;;;;3.70;2.00;;;;;;;22.95;56.75;99495.78;5576439;31;33031;-70
2022/09/26 12:45:40;;;;;;;2.30;1.80;;;;;;;25.49;51.37;99486.25;5351452;31;297009;-69
2022/09/26 12:49:30;;;;;;;4.80;2.20;;;;;;;29.31;41.92;99507.41;5576744;31;34760;-71
2022/09/26 12:52:36;;;;;;;3.50;2.13;;;;;;;29.75;39.14;99496.38;5590468;31;34432;-70
2022/09/26 12:55:45;;;;;;;;;;;;;;;25.83;47.20;99488.09;5563727;31;296916;-69
2022/09/26 13:00:55;;;;;;;3.33;2.30;;;;;;;22.61;58.46;99479.22;5509218;31;296855;-69
2022/09/26 13:04:15;;;;;;;4.75;2.50;;;;;;;22.61;58.46;99479.22;5576826;31;34148;-68
2022/09/26 13:07:34;;;;;;;3.95;2.60;;;;;;;19.61;77.92;99455.56;5589930;31;33986;-69
2022/09/26 13:11:05;;;;;;;6.28;2.75;;;;;;;20.01;73.96;99459.84;5589752;31;34243;-69
2022/09/26 13:14:14;;;;;;;5.57;2.45;;;;;;;19.88;75.58;99469.94;5590192;31;33985;-69
2022/09/26 13:17:27;;;;;;;2.97;2.00;;;;;;;19.49;72.99;99454.88;5590038;31;34002;-69
2022/09/26 13:20:37;;;;;;;4.25;2.35;;;;;;;19.41;72.71;99457.97;5589966;31;34068;-69
2022/09/26 13:23:54;;;;;;;2.97;2.55;;;;;;;18.80;75.79;99465.06;5575591;31;32412;-68
2022/09/26 13:27:11;;;;;;;4.12;2.40;;;;;;;18.37;80.17;99471.00;5575872;31;32434;-68
2022/09/26 13:30:23;;;;;;;4.70;3.22;;;;;;;18.00;81.46;99472.44;5589852;31;34528;-68
2022/09/26 13:33:32;;;;;;;;;;;;;;;18.33;80.41;99471.72;5576560;31;32645;-69
2022/09/26 13:36:37;;;;;;;;;;;;;;;19.02;76.03;99465.19;5590044;31;34756;-69
2022/09/26 13:39:52;;;;;;;5.37;2.72;;;;;;;18.61;80.04;99474.41;5589697;31;34309;-70
2022/09/26 13:43:07;;;;;;;3.10;2.62;;;;;;;18.99;78.14;99474.53;5589484;31;34671;-68
2022/09/26 13:46:26;;;;;;;3.78;2.70;;;;;;;18.87;81.21;99459.56;5575578;31;33917;-69
2022/09/26 13:49:49;;;;;;;3.20;2.65;;;;;;;21.79;67.97;99469.19;5575453;31;32461;-71
2022/09/26 13:53:18;;;;;;;3.28;2.62;;;;;;;21.39;67.18;99474.41;5589566;31;34628;-68
2022/09/26 13:56:34;;;;;;;2.78;2.40;;;;;;;22.10;62.92;99476.41;5562586;31;32780;-69
2022/09/26 13:59:50;;;;;;;4.78;2.70;;;;;;;21.95;62.21;99483.63;5589302;31;34073;-69
2022/09/26 14:03:12;;;;;;;4.93;2.60;;;;;;;22.84;62.08;99469.81;5589193;31;34008;-69
2022/09/26 14:06:29;;;;;;;4.32;2.87;;;;;;;21.26;68.15;99464.84;5575502;31;32468;-69
2022/09/26 14:09:51;;;;;;;3.45;2.80;;;;;;;21.19;69.09;99451.59;5589041;31;34502;-69
2022/09/26 14:13:07;;;;;;;2.65;2.20;;;;;;;21.58;64.87;99446.72;5589188;31;33875;-71
2022/09/26 14:16:27;;;;;;;6.18;2.40;;;;;;;21.03;66.88;99457.09;5575183;31;32737;-69
2022/09/26 14:19:47;;;;;;;5.82;2.17;;;;;;;20.45;68.95;99456.06;5575208;31;34201;-69
2022/09/26 14:22:55;;;;;;;4.22;2.37;;;;;;;20.51;69.53;99452.34;5574805;31;33328;-70
2022/09/26 14:26:13;;;;;;;6.15;2.78;;;;;;;19.34;75.33;99444.69;5574455;31;33259;-69
2022/09/26 14:29:29;;;;;;;3.53;2.50;;;;;;;18.85;77.84;99432.91;5587981;31;34196;-69
2022/09/26 14:32:37;;;;;;;5.32;2.30;;;;;;;18.67;79.26;99436.66;5588804;31;34420;-69
2022/09/26 14:35:42;;;;;;;4.03;2.70;;;;;;;19.11;76.85;99426.06;5588612;31;34406;-70
2022/09/26 14:38:52;;;;;;;2.72;2.22;;;;;;;18.68;77.82;99418.69;5574745;31;32758;-68
2022/09/26 14:41:57;;;;;;;4.18;2.20;;;;;;;18.61;79.59;99420.69;5588636;31;34941;-68
2022/09/26 14:45:17;;;;;;;3.17;2.50;;;;;;;18.72;78.38;99414.44;5588611;31;34080;-68
2022/09/26 14:48:39;;;;;;;6.22;2.33;;;;;;;18.85;76.39;99414.09;5575110;31;35233;-68
2022/09/26 14:51:47;;;;;;;4.37;2.28;;;;;;;19.04;76.52;99404.72;5588708;31;33956;-68
2022/09/26 14:54:55;;;;;;;3.08;2.30;;;;;;;18.89;78.14;99403.66;5575195;31;35003;-69
2022/09/26 14:58:32;;;;;;;7.25;2.50;;;;;;;18.49;78.70;99404.59;5588657;31;34276;-67
2022/09/26 15:01:38;;;;;;;3.72;2.50;;;;;;;18.42;82.04;99409.34;5574557;31;36938;-69
2022/09/26 15:04:52;;;;;;;2.72;2.47;;;;;;;18.07;82.14;99406.00;5574853;31;34254;-68
2022/09/26 15:07:59;;;;;;;5.10;2.50;;;;;;;17.88;83.38;99417.97;5561903;31;32501;-69
2022/09/26 15:11:06;;;;;;;4.18;2.90;;;;;;;17.80;85.69;99420.00;5574004;31;33075;-68
2022/09/26 15:14:50;;;;;;;5.30;2.80;;;;;;;17.68;85.75;99408.47;5574047;31;34399;-68
2022/09/26 15:18:06;;;;;;;7.95;2.90;;;;;;;17.93;85.93;99397.41;5489970;32;33976;-68
2022/09/26 15:21:25;;;;;;;2.72;2.50;;;;;;;17.61;87.86;99394.38;5489403;32;33922;-68
2022/09/26 15:24:33;;;;;;;3.03;2.40;;;;;;;17.73;86.79;99399.69;5476670;32;33335;-68
2022/09/26 15:27:42;;;;;;;4.60;2.62;;;;;;;17.65;90.14;99400.91;5476875;32;33479;-68
2022/09/26 15:31:22;;;;;;;3.42;2.70;;;;;;;17.65;91.52;99382.13;5476562;32;33580;-68
2022/09/26 15:34:33;;;;;;;4.25;2.50;;;;;;;17.49;91.07;99395.41;5489682;32;33805;-69
2022/09/26 15:37:41;;;;;;;3.83;2.95;;;;;;;17.22;91.30;99387.06;5488884;32;34395;-68
2022/09/26 15:41:02;;;;;;;3.67;3.25;;;;;;;17.13;94.04;99383.13;5476981;32;33062;-69
2022/09/26 15:44:22;;;;;;;3.40;2.70;;;;;;;17.16;93.14;99371.91;5489394;32;34331;-68
2022/09/26 15:47:29;;;;;;;4.62;3.03;;;;;;;17.07;94.18;99376.00;5477712;32;33396;-68
2022/09/26 15:50:42;;;;;;;3.90;2.67;;;;;;;16.95;95.88;99381.34;5496019;31;33046;-69
2022/09/26 15:53:57;;;;;;;5.07;3.78;;;;;;;16.85;98.55;99389.16;5576140;31;34207;-68
2022/09/26 15:57:07;;;;;;;4.40;2.83;;;;;;;16.73;100.00;99383.81;5590409;31;33971;-68
2022/09/26 16:00:14;;;;;;;3.60;2.90;;;;;;;16.73;100.00;99380.31;5590382;31;34687;-68
2022/09/26 16:03:28;;;;;;;4.10;2.97;;;;;;;16.54;100.00;99379.56;5590340;31;34192;-69
2022/09/26 16:06:40;;;;;;;4.12;3.30;;;;;;;16.50;100.00;99379.22;5589818;31;35166;-69
2022/09/26 16:09:50;;;;;;;7.28;3.50;;;;;;;16.51;100.00;99377.34;5576339;31;33873;-69
2022/09/26 16:12:59;;;;;;;5.90;3.30;;;;;;;16.49;100.00;99385.63;5576653;31;33436;-68
2022/09/26 16:16:11;;;;;;;4.43;3.28;;;;;;;16.34;100.00;99395.12;5576301;31;32366;-68
2022/09/26 16:19:32;;;;;;;6.03;3.22;;;;;;;16.14;100.00;99389.22;5590192;31;34161;-69
2022/09/26 16:22:50;;;;;;;5.12;3.55;;;;;;;15.96;100.00;99385.56;5577311;31;34677;-69
2022/09/26 16:25:56;;;;;;;5.22;3.35;;;;;;;15.83;100.00;99383.06;5590620;31;33966;-69
2022/09/26 16:29:07;;;;;;;6.90;3.28;;;;;;;15.63;100.00;99375.31;5576686;31;33181;-69
2022/09/26 16:32:18;;;;;;;4.35;3.53;;;;;;;15.46;100.00;99384.13;5563613;31;32886;-68
2022/09/26 16:35:28;;;;;;;;;;;;;;;15.34;100.00;99392.06;5575933;31;34194;-68
2022/09/26 16:38:36;;;;;;;5.53;3.53;;;;;;;15.15;100.00;99388.56;5590348;31;34959;-69
2022/09/26 16:41:43;;;;;;;5.30;4.18;;;;;;;14.98;100.00;99384.00;5590596;31;34190;-69
2022/09/26 16:45:12;;;;;;;5.12;4.30;;;;;;;14.79;100.00;99378.66;5590410;31;34632;-69
2022/09/26 16:48:38;;;;;;;5.53;3.92;;;;;;;14.60;100.00;99384.16;5576594;31;33272;-69
2022/09/26 16:52:09;;;;;;;9.68;4.20;;;;;;;14.48;100.00;99378.69;5590248;31;34300;-68
2022/09/26 16:55:15;;;;;;;6.93;4.70;;;;;;;14.32;100.00;99369.34;5590535;31;34035;-68
2022/09/26 16:58:21;;;;;;;6.62;4.90;;;;;;;14.19;100.00;99371.28;5575631;31;32489;-69
2022/09/26 17:04:56;;;;;;;11.52;5.07;;;;;;;13.97;100.00;99367.31;5590249;31;34080;-68
2022/09/26 17:08:03;;;;;;;6.10;4.87;;;;;;;13.86;100.00;99368.81;5576461;31;33134;-68
2022/09/26 17:11:14;;;;;;;7.40;5.40;;;;;;;13.79;100.00;99366.19;5577139;31;34028;-68
2022/09/26 17:14:21;;;;;;;;;;;;;;;13.72;100.00;99381.38;5590371;31;34664;-68
2022/09/26 17:17:29;;;;;;;5.90;5.12;;;;;;;13.61;100.00;99375.91;5590273;31;34229;-68
2022/09/26 17:20:37;;;;;;;7.68;5.60;;;;;;;13.50;100.00;99372.06;5576438;31;33038;-68
2022/09/26 17:23:43;;;;;;;9.38;6.10;;;;;;;13.40;100.00;99379.69;5576653;31;34148;-68
2022/09/26 17:27:03;;;;;;;9.20;6.05;;;;;;;13.31;100.00;99379.06;5575875;31;33448;-68
2022/09/26 17:30:15;;;;;;;12.70;6.45;;;;;;;13.21;100.00;99380.56;5589828;31;33938;-68
2022/09/26 17:33:28;;;;;;;13.93;6.90;;;;;;;13.14;100.00;99390.41;5575692;31;34365;-68
2022/09/26 17:36:36;;;;;;;11.32;6.12;;;;;;;13.08;100.00;99397.34;5563429;31;32531;-68
2022/09/26 17:39:43;;;;;;;14.27;7.40;;;;;;;13.02;100.00;99393.66;5576013;31;33359;-68
2022/09/26 17:42:51;;;;;;;11.05;7.12;;;;;;;12.99;100.00;99390.59;5590151;31;34883;-68
2022/09/26 17:45:59;;;;;;;10.85;7.85;;;;;;;12.94;100.00;99387.75;5576340;31;33304;-68
2022/09/26 17:49:15;;;;;;;10.50;7.80;;;;;;;12.89;100.00;99388.34;5589896;31;34724;-67
2022/09/26 17:52:25;;;;;;;17.58;8.73;;;;;;;12.85;100.00;99375.66;5575975;31;32667;-67
2022/09/26 17:55:32;;;;;;;16.60;8.85;;;;;;;12.78;100.00;99378.34;5589880;31;34213;-67
2022/09/26 17:58:45;;;;;;;17.77;10.05;;;;;;;12.75;100.00;99383.25;5576147;31;32795;-69
2022/09/26 18:02:16;;;;;;;18.23;9.25;;;;;;;12.70;100.00;99380.38;5589926;31;34076;-68
2022/09/26 18:05:28;;;;;;;19.10;9.90;;;;;;;12.63;100.00;99383.06;5576573;31;33873;-68
2022/09/26 18:08:37;;;;;;;20.33;9.70;;;;;;;12.59;100.00;99374.66;5590139;31;34740;-68
2022/09/26 18:11:48;;;;;;;15.73;10.13;;;;;;;12.54;100.00;99374.44;5575306;31;34866;-68
2022/09/26 18:14:58;;;;;;;21.95;11.00;;;;;;;12.49;100.00;99376.13;5576177;31;33294;-68
2022/09/26 18:18:15;;;;;;;19.52;10.40;;;;;;;12.47;100.00;99375.50;5589746;31;34344;-68
2022/09/26 18:21:25;;;;;;;19.45;10.10;;;;;;;12.44;100.00;99370.59;5589706;31;34080;-68
2022/09/26 18:24:34;;;;;;;27.30;9.77;;;;;;;12.37;100.00;99373.25;5589500;31;34180;-68
2022/09/26 18:27:42;;;;;;;17.25;10.43;;;;;;;12.35;100.00;99374.44;5575650;31;32735;-68
2022/09/26 18:30:56;;;;;;;16.52;10.93;;;;;;;12.31;100.00;99379.34;5589606;31;34066;-68
2022/09/26 18:34:02;;;;;;;20.70;10.57;;;;;;;12.25;100.00;99377.50;5575352;31;32721;-68
2022/09/26 18:37:09;;;;;;;20.98;10.93;;;;;;;12.19;100.00;99373.03;5575397;31;32884;-68
2022/09/26 18:40:15;;;;;;;21.02;11.95;;;;;;;12.16;100.00;99376.06;5589543;31;34784;-68
2022/09/26 18:43:23;;;;;;;24.55;11.95;;;;;;;12.13;100.00;99381.78;5576056;31;33897;-68
2022/09/26 18:46:32;;;;;;;21.73;12.75;;;;;;;12.09;100.00;99373.41;5575601;31;32476;-68
2022/09/26 18:49:43;;;;;;;23.23;12.32;;;;;;;12.06;100.00;99379.12;5575033;31;34519;-68
2022/09/26 18:52:51;;;;;;;23.13;12.07;;;;;;;12.05;100.00;99368.69;5589341;31;34195;-68
2022/09/26 18:59:29;;;;;;;24.77;13.52;;;;;;;11.97;100.00;99379.50;5589446;31;34547;-68
2022/09/26 19:02:37;;;;;;;;;;;;;;;11.93;100.00;99383.59;5589589;31;34655;-68
2022/09/26 19:05:46;;;;;;;30.05;13.62;;;;;;;11.88;100.00;99378.06;5589478;31;34935;-69
2022/09/26 19:09:06;;;;;;;25.08;11.77;;;;;;;11.85;100.00;99373.97;5589095;31;33886;-68
2022/09/26 19:12:15;;;;;;;22.75;12.80;;;;;;;11.83;100.00;99383.97;5575269;31;32442;-69
2022/09/26 19:15:24;;;;;;;22.50;12.23;;;;;;;11.81;100.00;99387.84;5575021;31;33891;-68
2022/09/26 19:18:31;;;;;;;20.37;12.40;;;;;;;11.79;100.00;99389.88;5589132;31;34744;-68
2022/09/26 19:21:40;;;;;;;17.75;11.48;;;;;;;11.79;100.00;99390.72;5574191;31;33324;-68
2022/09/26 19:24:54;;;;;;;15.77;10.07;;;;;;;11.79;100.00;99390.72;5575201;31;33164;-68
2022/09/26 19:28:02;;;;;;;20.65;11.27;;;;;;;11.74;100.00;99385.16;5574944;31;32838;-68
2022/09/26 19:31:10;;;;;;;19.17;10.57;;;;;;;11.71;100.00;99389.00;5588922;31;34476;-68
2022/09/26 19:34:18;;;;;;;18.25;10.20;;;;;;;11.70;100.00;99392.69;5562786;31;32441;-68
2022/09/26 19:37:28;;;;;;;19.75;11.00;;;;;;;11.71;100.00;99412.13;5588794;31;34034;-68
2022/09/26 19:40:38;;;;;;;24.25;11.75;;;;;;;11.72;100.00;99406.63;5589009;31;34715;-68
2022/09/26 19:43:54;;;;;;;22.17;11.63;;;;;;;11.74;100.00;99401.94;5588857;31;34117;-68
2022/09/26 19:47:03;;;;;;;23.58;11.48;;;;;;;11.72;100.00;99400.44;5588731;31;33946;-69
2022/09/26 19:50:15;;;;;;;17.67;10.68;;;;;;;11.70;100.00;99394.53;5588454;31;33965;-68
2022/09/26 19:53:23;;;;;;;16.50;10.52;;;;;;;11.67;100.00;99392.25;5588756;31;33967;-68
2022/09/26 19:56:31;;;;;;;25.03;11.57;;;;;;;11.63;100.00;99397.16;5574452;31;32692;-68
2022/09/26 19:59:42;;;;;;;19.08;10.93;;;;;;;11.62;100.00;99394.69;5588539;31;33901;-68
2022/09/26 20:02:52;;;;;;;17.70;11.02;;;;;;;11.66;100.00;99398.59;5588346;31;34144;-68
2022/09/26 20:06:00;;;;;;;16.37;10.73;;;;;;;11.72;100.00;99387.16;5574164;31;33011;-68
2022/09/26 20:09:14;;;;;;;18.50;11.63;;;;;;;11.79;100.00;99393.38;5574196;31;32750;-68
2022/09/26 20:12:19;;;;;;;19.30;10.60;;;;;;;11.91;100.00;99382.97;5588293;31;34051;-68
2022/09/26 20:15:24;;;;;;;16.42;10.43;;;;;;;12.09;100.00;99383.22;5573893;31;32685;-68
2022/09/26 20:18:32;;;;;;;15.40;10.27;;;;;;;12.19;100.00;99387.12;5574193;31;32583;-68
2022/09/26 20:21:39;;;;;;;19.23;11.07;;;;;;;12.28;100.00;99384.28;5573734;31;32528;-68
2022/09/26 20:24:53;;;;;;;13.18;10.55;;;;;;;12.29;100.00;99388.56;5574217;31;33495;-68
2022/09/26 20:28:02;;;;;;;17.65;10.82;;;;;;;12.25;100.00;99376.72;5549769;31;1230406;-68
2022/09/26 20:31:27;;;;;;;15.05;10.77;;;;;;;12.15;100.00;99385.09;5587913;31;34583;-68
2022/09/26 20:34:36;;;;;;;21.12;11.07;;;;;;;12.07;100.00;99390.56;5589824;31;34544;-68
2022/09/26 20:37:45;;;;;;;17.45;11.43;;;;;;;12.03;100.00;99392.81;5590671;31;34355;-69
2022/09/26 20:41:00;;;;;;;18.52;11.45;;;;;;;11.97;100.00;99392.78;5590736;31;33901;-68
2022/09/26 20:44:16;;;;;;;14.65;11.30;;;;;;;11.92;100.00;99392.56;5563841;31;32851;-69
2022/09/26 20:47:28;;;;;;;13.82;11.05;;;;;;;11.89;100.00;99393.81;5590767;31;33989;-68
2022/09/26 20:50:38;;;;;;;17.62;11.80;;;;;;;11.89;100.00;99387.66;5576794;31;32456;-68
2022/09/26 20:53:46;;;;;;;16.15;11.80;;;;;;;11.90;100.00;99382.16;5591004;31;33956;-68
2022/09/26 20:56:55;;;;;;;17.30;12.00;;;;;;;11.92;100.00;99388.09;5590548;31;34041;-68
2022/09/26 21:00:01;;;;;;;19.27;11.93;;;;;;;11.93;100.00;99387.06;5590571;31;34090;-69
2022/09/26 21:03:11;;;;;;;16.08;11.98;;;;;;;11.98;100.00;99400.56;5590533;31;34307;-68
2022/09/26 21:06:20;;;;;;;18.70;13.35;;;;;;;12.02;100.00;99391.19;5576736;31;32592;-69
2022/09/26 21:09:31;;;;;;;19.50;13.00;;;;;;;12.03;100.00;99376.87;5590457;31;34009;-67
2022/09/26 21:12:39;;;;;;;17.27;12.25;;;;;;;12.05;100.00;99380.12;5590234;31;34047;-68
2022/09/26 21:15:52;;;;;;;15.48;12.20;;;;;;;12.11;100.00;99374.00;5576233;31;32935;-68
2022/09/26 21:18:58;;;;;;;19.83;12.45;;;;;;;12.16;100.00;99371.56;5590453;31;34600;-69
2022/09/26 21:22:11;;;;;;;21.50;12.55;;;;;;;12.19;100.00;99376.50;5590832;31;33955;-69
2022/09/26 21:25:20;;;;;;;16.65;12.57;;;;;;;12.19;100.00;99367.69;5590625;31;34140;-69
2022/09/26 21:28:30;;;;;;;16.40;12.95;;;;;;;12.17;100.00;99357.25;5576368;31;32473;-69
2022/09/26 21:31:39;;;;;;;16.80;12.98;;;;;;;12.20;100.00;99356.03;5576437;31;33303;-69
2022/09/26 21:34:57;;;;;;;17.77;12.98;;;;;;;12.24;100.00;99351.97;5590286;31;34632;-68
2022/09/26 21:38:06;;;;;;;17.87;13.15;;;;;;;12.28;100.00;99349.69;5589828;31;34266;-69
2022/09/26 21:41:14;;;;;;;18.62;13.23;;;;;;;12.27;100.00;99346.22;5576983;31;34602;-69
2022/09/26 21:44:37;;;;;;;20.10;12.35;;;;;;;12.28;100.00;99341.72;5589677;31;34605;-68
2022/09/26 21:47:51;;;;;;;19.80;12.85;;;;;;;12.32;100.00;99346.44;5576670;31;33728;-69
2022/09/26 21:50:57;;;;;;;18.67;13.27;;;;;;;12.30;100.00;99348.47;5590365;31;35241;-69
2022/09/26 21:54:22;;;;;;;20.95;13.70;;;;;;;12.28;100.00;99344.38;5590104;31;34362;-68
2022/09/26 21:57:33;;;;;;;20.12;13.30;;;;;;;12.29;100.00;99356.66;5590028;31;34042;-69
2022/09/26 22:00:42;;;;;;;20.98;13.75;;;;;;;12.26;100.00;99351.72;5590088;31;34032;-69
2022/09/26 22:03:52;;;;;;;19.35;13.77;;;;;;;12.24;100.00;99353.78;5590040;31;34545;-68
2022/09/26 22:07:00;;;;;;;22.80;14.65;;;;;;;12.23;100.00;99354.81;5590084;31;33912;-69
2022/09/26 22:10:14;;;;;;;17.23;13.77;;;;;;;12.20;100.00;99348.03;5589939;31;34208;-69
2022/09/26 22:13:20;;;;;;;19.37;14.30;;;;;;;12.28;100.00;99339.06;5589961;31;34025;-69
2022/09/26 22:16:31;;;;;;;20.58;14.05;;;;;;;12.29;100.00;99332.72;5589906;31;34082;-68
2022/09/26 22:19:37;;;;;;;22.23;14.40;;;;;;;12.31;100.00;99341.31;5589917;31;33995;-69
2022/09/26 22:22:44;;;;;;;21.70;14.65;;;;;;;12.31;100.00;99336.00;5576526;31;33981;-69
2022/09/26 22:25:56;;;;;;;18.77;14.40;;;;;;;12.31;100.00;99334.16;5589791;31;33931;-69
2022/09/26 22:29:05;;;;;;;20.40;14.95;;;;;;;12.33;100.00;99318.00;5575842;31;33354;-69
2022/09/26 22:32:12;;;;;;;18.55;14.10;;;;;;;12.36;100.00;99322.91;5589641;31;34028;-69
2022/09/26 22:35:17;;;;;;;22.35;14.63;;;;;;;12.38;100.00;99323.53;5589638;31;34012;-69
2022/09/26 22:38:23;;;;;;;22.55;14.57;;;;;;;12.39;100.00;99315.31;5575615;31;33285;-69
2022/09/26 22:41:26;;;;;;;19.83;14.30;;;;;;;12.42;100.00;99306.94;5589527;31;34763;-69
2022/09/26 22:44:30;;;;;;;20.60;14.25;;;;;;;12.41;100.00;99301.81;5576034;31;34281;-69
2022/09/26 22:47:34;;;;;;;22.08;14.00;;;;;;;12.41;100.00;99288.53;5589963;31;34607;-69
2022/09/26 22:50:44;;;;;;;17.67;13.98;;;;;;;12.43;100.00;99282.00;5589420;31;33889;-68
2022/09/26 22:53:49;;;;;;;19.17;14.18;;;;;;;12.39;100.00;99272.75;5589576;31;34631;-69
2022/09/26 22:56:53;;;;;;;20.75;14.35;;;;;;;12.43;100.00;99279.31;5575334;31;32972;-69
2022/09/26 22:59:57;;;;;;;21.33;14.30;;;;;;;12.31;100.00;99286.28;5589465;31;34415;-69
2022/09/26 23:03:03;;;;;;;22.90;13.93;;;;;;;12.37;100.00;99280.16;5576049;31;34007;-69
2022/09/26 23:06:08;;;;;;;19.55;14.38;;;;;;;12.38;100.00;99280.97;5589476;31;34036;-69
2022/09/26 23:09:12;;;;;;;19.60;13.50;;;;;;;12.55;100.00;99266.19;5589337;31;34052;-69
2022/09/26 23:12:22;;;;;;;17.42;13.98;;;;;;;12.40;100.00;99254.97;5576217;31;34832;-69
2022/09/26 23:15:26;;;;;;;22.92;14.27;;;;;;;12.23;100.00;99251.09;5589389;31;35202;-69
2022/09/26 23:18:33;;;;;;;17.70;13.57;;;;;;;12.16;100.00;99248.44;5589328;31;33828;-69
2022/09/26 23:21:39;;;;;;;19.20;14.60;;;;;;;12.07;100.00;99249.69;5575624;31;34643;-69
2022/09/26 23:24:46;;;;;;;19.25;14.65;;;;;;;11.98;100.00;99243.75;5575556;31;32795;-69
2022/09/26 23:27:50;;;;;;;18.23;13.85;;;;;;;11.96;100.00;99250.28;5589134;31;34629;-68
2022/09/26 23:31:03;;;;;;;21.58;14.23;;;;;;;11.91;100.00;99244.78;5589110;31;34301;-69
2022/09/26 23:34:10;;;;;;;20.30;13.62;;;;;;;11.84;100.00;99235.97;5589061;31;33918;-68
2022/09/26 23:37:14;;;;;;;22.13;14.43;;;;;;;11.81;100.00;99237.22;5588741;31;33965;-69
2022/09/26 23:40:18;;;;;;;20.95;15.73;;;;;;;11.79;100.00;99231.28;5589025;31;34705;-69
2022/09/26 23:43:31;;;;;;;21.98;16.15;;;;;;;11.80;100.00;99232.91;5576021;31;34754;-69
2022/09/26 23:46:38;;;;;;;23.73;15.55;;;;;;;11.87;100.00;99235.56;5588884;31;34632;-69
2022/09/26 23:49:44;;;;;;;25.27;15.50;;;;;;;11.90;100.00;99233.34;5588703;31;34034;-69
2022/09/26 23:52:50;;;;;;;20.37;15.15;;;;;;;11.87;100.00;99217.78;5588746;31;34036;-69
2022/09/26 23:56:07;;;;;;;22.13;15.82;;;;;;;11.86;100.00;99221.44;5588644;31;34023;-69
2022/09/26 23:59:14;;;;;;;22.85;15.27;;;;;;;11.86;100.00;99204.72;5588563;31;33923;-68
